createdAt,value
2024-01-05T00:01:31.466Z,7.50
2024-01-05T00:03:59.526Z,7.50
2024-01-05T00:06:27.850Z,7.50
2024-01-05T00:08:57.928Z,7.50
2024-01-05T00:11:26.131Z,7.50
2024-01-05T00:13:54.190Z,7.50
2024-01-05T00:16:23.336Z,7.50
2024-01-05T00:18:52.405Z,7.50
2024-01-05T00:21:21.811Z,7.50
2024-01-05T00:23:50.568Z,7.50
2024-01-05T00:26:20.458Z,7.60
2024-01-05T00:28:49.661Z,7.50
2024-01-05T00:31:18.263Z,7.50
2024-01-05T00:33:47.077Z,7.50
2024-01-05T00:36:15.500Z,7.50
2024-01-05T00:38:48.408Z,7.50
2024-01-05T00:41:16.781Z,7.40
2024-01-05T00:43:46.294Z,7.40
2024-01-05T00:46:14.323Z,7.40
2024-01-05T00:48:42.623Z,7.30
2024-01-05T00:51:10.822Z,7.20
2024-01-05T00:53:38.851Z,7.20
2024-01-05T00:56:07.397Z,7.20
2024-01-05T00:58:35.589Z,7.20
2024-01-05T01:01:08.084Z,7.20
2024-01-05T01:03:36.303Z,7.20
2024-01-05T01:06:04.630Z,7.20
2024-01-05T01:08:32.669Z,7.30
2024-01-05T01:11:01.683Z,7.30
2024-01-05T01:13:29.999Z,7.30
2024-01-05T01:15:58.125Z,7.30
2024-01-05T01:18:28.933Z,7.30
2024-01-05T01:20:57.145Z,7.40
2024-01-05T01:23:25.233Z,7.40
2024-01-05T01:25:53.269Z,7.30
2024-01-05T01:28:21.263Z,7.20
2024-01-05T01:30:49.350Z,7.20
2024-01-05T01:33:17.767Z,7.10
2024-01-05T01:35:47.283Z,7.10
2024-01-05T01:38:15.355Z,7.10
2024-01-05T01:40:47.315Z,7.00
2024-01-05T01:43:23.633Z,7.00
2024-01-05T01:45:51.718Z,7.00
2024-01-05T01:48:21.555Z,6.90
2024-01-05T01:50:52.190Z,6.90
2024-01-05T01:53:22.972Z,6.90
2024-01-05T01:55:51.646Z,6.90
2024-01-05T01:58:21.804Z,6.90
2024-01-05T02:00:51.418Z,6.80
2024-01-05T02:03:20.379Z,6.80
2024-01-05T02:05:50.277Z,6.80
2024-01-05T02:08:18.555Z,6.80
2024-01-05T02:10:46.574Z,6.80
2024-01-05T02:13:14.762Z,6.70
2024-01-05T02:15:42.804Z,6.70
2024-01-05T02:18:12.790Z,6.80
2024-01-05T02:20:41.029Z,6.70
2024-01-05T02:23:20.700Z,6.70
2024-01-05T02:25:48.767Z,6.70
2024-01-05T02:28:16.849Z,6.70
2024-01-05T02:30:44.924Z,6.70
2024-01-05T02:33:13.132Z,6.70
2024-01-05T02:35:41.314Z,6.80
2024-01-05T02:38:09.571Z,6.70
2024-01-05T02:40:39.002Z,6.80
2024-01-05T02:43:07.125Z,6.70
2024-01-05T02:45:36.807Z,6.70
2024-01-05T02:48:05.782Z,6.70
2024-01-05T02:50:33.880Z,6.70
2024-01-05T02:53:02.373Z,6.70
2024-01-05T02:55:30.396Z,6.70
2024-01-05T02:57:59.746Z,6.60
2024-01-05T03:00:27.854Z,6.60
2024-01-05T03:02:57.545Z,6.60
2024-01-05T03:05:25.712Z,6.60
2024-01-05T03:07:53.764Z,6.60
2024-01-05T03:10:22.763Z,6.60
2024-01-05T03:12:52.815Z,6.60
2024-01-05T03:15:22.318Z,6.60
2024-01-05T03:17:51.803Z,6.60
2024-01-05T03:20:21.546Z,6.70
2024-01-05T03:22:49.576Z,6.60
2024-01-05T03:25:17.614Z,6.60
2024-01-05T03:27:45.652Z,6.60
2024-01-05T03:30:13.871Z,6.60
2024-01-05T03:32:44.528Z,6.60
2024-01-05T03:35:12.994Z,6.60
2024-01-05T03:37:41.084Z,6.60
2024-01-05T03:40:10.200Z,6.70
2024-01-05T03:42:38.233Z,6.80
2024-01-05T03:45:07.236Z,6.90
2024-01-05T03:47:35.348Z,6.90
2024-01-05T03:50:05.244Z,7.00
2024-01-05T03:52:33.368Z,7.10
2024-01-05T03:55:02.924Z,7.10
2024-01-05T03:57:31.617Z,7.10
2024-01-05T03:59:59.815Z,7.20
2024-01-05T04:02:27.996Z,7.20
2024-01-05T04:04:56.151Z,7.20
2024-01-05T04:07:25.573Z,7.10
2024-01-05T04:09:53.686Z,7.20
2024-01-05T04:12:21.726Z,7.20
2024-01-05T04:14:51.110Z,7.20
2024-01-05T04:17:19.959Z,7.10
2024-01-05T04:19:48.042Z,7.20
2024-01-05T04:22:16.105Z,7.20
2024-01-05T04:24:45.476Z,7.20
2024-01-05T04:27:13.586Z,7.20
2024-01-05T04:29:40.626Z,7.10
2024-01-05T04:32:08.745Z,7.10
2024-01-05T04:34:36.931Z,7.10
2024-01-05T04:37:05.483Z,7.20
2024-01-05T04:39:33.522Z,7.20
2024-01-05T04:42:04.335Z,7.30
2024-01-05T04:44:32.534Z,7.30
2024-01-05T04:47:00.559Z,7.30
2024-01-05T04:49:28.784Z,7.20
2024-01-05T04:51:57.060Z,7.30
2024-01-05T04:54:25.139Z,7.30
2024-01-05T04:56:53.303Z,7.30
2024-01-05T04:59:24.829Z,7.30
2024-01-05T05:01:53.657Z,7.30
2024-01-05T05:04:21.805Z,7.40
2024-01-05T05:06:49.873Z,7.40
2024-01-05T05:09:18.176Z,7.50
2024-01-05T05:11:46.446Z,7.50
2024-01-05T05:14:14.723Z,7.50
2024-01-05T05:16:44.134Z,7.50
2024-01-05T05:19:12.343Z,7.40
2024-01-05T05:21:40.643Z,7.30
2024-01-05T05:24:08.715Z,7.30
2024-01-05T05:26:36.766Z,7.30
2024-01-05T05:29:04.802Z,7.20
2024-01-05T05:31:33.657Z,7.30
2024-01-05T05:34:03.139Z,7.30
2024-01-05T05:36:31.301Z,7.20
2024-01-05T05:38:59.340Z,7.20
2024-01-05T05:41:27.426Z,7.20
2024-01-05T05:43:55.605Z,7.20
2024-01-05T05:46:23.679Z,7.10
2024-01-05T05:48:51.811Z,7.10
2024-01-05T05:51:21.329Z,7.10
2024-01-05T05:53:49.364Z,7.10
2024-01-05T05:56:17.354Z,7.20
2024-01-05T05:58:45.628Z,7.20
2024-01-05T06:01:14.577Z,7.20
2024-01-05T06:03:42.826Z,7.30
2024-01-05T06:06:19.980Z,7.40
2024-01-05T06:08:50.071Z,7.40
2024-01-05T06:11:18.604Z,7.50
2024-01-05T06:13:47.281Z,7.50
2024-01-05T06:16:15.652Z,7.50
2024-01-05T06:18:45.750Z,7.60
2024-01-05T06:21:13.938Z,7.60
2024-01-05T06:23:42.227Z,7.60
2024-01-05T06:26:11.635Z,7.60
2024-01-05T06:28:39.677Z,7.50
2024-01-05T06:31:08.293Z,7.50
2024-01-05T06:33:36.635Z,7.50
2024-01-05T06:36:05.083Z,7.40
2024-01-05T06:38:33.169Z,7.40
2024-01-05T06:41:01.205Z,7.40
2024-01-05T06:43:30.555Z,7.50
2024-01-05T06:45:58.608Z,7.50
2024-01-05T06:48:26.809Z,7.70
2024-01-05T06:50:55.086Z,7.70
2024-01-05T06:53:23.570Z,7.90
2024-01-05T06:55:51.608Z,8.10
2024-01-05T06:58:19.684Z,8.40
2024-01-05T07:00:49.210Z,8.50
2024-01-05T07:03:17.413Z,8.60
2024-01-05T07:05:45.660Z,8.70
2024-01-05T07:08:13.956Z,8.80
2024-01-05T07:10:42.148Z,8.80
2024-01-05T07:13:10.182Z,8.80
2024-01-05T07:15:38.300Z,8.70
2024-01-05T07:18:08.110Z,8.70
2024-01-05T07:20:36.286Z,8.70
2024-01-05T07:23:04.460Z,8.60
2024-01-05T07:25:32.502Z,8.60
2024-01-05T07:28:00.520Z,8.50
2024-01-05T07:30:28.737Z,8.70
2024-01-05T07:32:57.081Z,8.70
2024-01-05T07:35:28.433Z,8.70
2024-01-05T07:37:57.617Z,8.70
2024-01-05T07:40:25.659Z,8.70
2024-01-05T07:42:53.647Z,8.80
2024-01-05T07:45:21.016Z,8.80
2024-01-05T07:47:52.218Z,8.80
2024-01-05T07:50:20.667Z,8.70
2024-01-05T07:52:50.037Z,8.70
2024-01-05T07:55:18.123Z,8.70
2024-01-05T07:57:48.649Z,8.80
2024-01-05T08:00:18.350Z,8.70
2024-01-05T08:02:46.403Z,8.80
2024-01-05T08:05:14.559Z,8.80
2024-01-05T08:07:45.326Z,8.80
2024-01-05T08:10:14.741Z,8.90
2024-01-05T08:12:42.877Z,8.80
2024-01-05T08:15:11.207Z,8.80
2024-01-05T08:17:39.702Z,8.90
2024-01-05T08:20:09.089Z,8.90
2024-01-05T08:22:38.754Z,8.90
2024-01-05T08:25:07.599Z,8.90
2024-01-05T08:27:36.997Z,8.90
2024-01-05T08:30:08.565Z,8.90
2024-01-05T08:32:37.048Z,8.90
2024-01-05T08:35:05.862Z,8.90
2024-01-05T08:37:35.979Z,8.90
2024-01-05T08:40:08.068Z,8.80
2024-01-05T08:42:37.725Z,8.70
2024-01-05T08:45:07.461Z,8.70
2024-01-05T08:47:35.571Z,8.80
2024-01-05T08:50:03.670Z,8.80
2024-01-05T08:52:31.730Z,8.80
2024-01-05T08:54:59.744Z,8.80
2024-01-05T08:57:27.900Z,8.70
2024-01-05T08:59:59.186Z,8.70
2024-01-05T09:02:28.298Z,8.70
2024-01-05T09:04:56.376Z,8.80
2024-01-05T09:07:24.470Z,8.70
2024-01-05T09:09:52.523Z,8.70
2024-01-05T09:12:20.618Z,8.70
2024-01-05T09:14:48.728Z,8.70
2024-01-05T09:17:18.187Z,8.60
2024-01-05T09:19:46.354Z,8.60
2024-01-05T09:22:14.761Z,8.60
2024-01-05T09:24:43.137Z,8.50
2024-01-05T09:27:11.187Z,8.50
2024-01-05T09:29:39.554Z,8.50
2024-01-05T09:32:08.289Z,8.50
2024-01-05T09:34:37.666Z,8.50
2024-01-05T09:37:06.084Z,8.50
2024-01-05T09:39:34.266Z,8.50
2024-01-05T09:42:02.360Z,8.50
2024-01-05T09:44:31.899Z,8.50
2024-01-05T09:47:00.052Z,8.50
2024-01-05T09:49:28.291Z,8.60
2024-01-05T09:51:59.196Z,8.60
2024-01-05T09:54:27.419Z,8.60
2024-01-05T09:56:55.739Z,8.60
2024-01-05T09:59:25.888Z,8.60
2024-01-05T10:01:55.317Z,8.60
2024-01-05T10:04:23.849Z,8.60
2024-01-05T10:07:02.335Z,8.60
2024-01-05T10:09:32.202Z,8.60
2024-01-05T10:12:00.320Z,8.60
2024-01-05T10:14:28.412Z,8.60
2024-01-05T10:17:10.076Z,8.60
2024-01-05T10:19:40.726Z,8.60
2024-01-05T10:22:14.796Z,8.60
2024-01-05T10:24:44.002Z,8.50
2024-01-05T10:27:13.548Z,8.60
2024-01-05T10:29:45.653Z,8.60
2024-01-05T10:32:16.754Z,8.60
2024-01-05T10:34:47.020Z,8.60
2024-01-05T10:37:18.014Z,8.60
2024-01-05T10:39:49.833Z,8.50
2024-01-05T10:42:22.851Z,8.50
2024-01-05T10:44:53.632Z,8.50
2024-01-05T10:47:22.235Z,8.50
2024-01-05T10:49:52.485Z,8.50
2024-01-05T10:52:23.319Z,8.50
2024-01-05T10:54:53.636Z,8.50
2024-01-05T10:57:25.678Z,8.50
2024-01-05T10:59:55.495Z,8.50
2024-01-05T11:02:26.940Z,8.50
2024-01-05T11:05:03.910Z,8.40
2024-01-05T11:07:35.546Z,8.30
2024-01-05T11:10:16.358Z,8.40
2024-01-05T11:13:01.825Z,8.40
2024-01-05T11:15:54.477Z,8.40
2024-01-05T11:18:57.150Z,8.30
2024-01-05T11:21:35.228Z,8.30
2024-01-05T11:24:04.961Z,8.20
2024-01-05T11:26:33.353Z,8.20
2024-01-05T11:29:01.429Z,8.20
2024-01-05T11:31:51.291Z,8.20
2024-01-05T11:34:35.615Z,8.20
2024-01-05T11:37:04.729Z,8.10
2024-01-05T11:39:46.660Z,8.10
2024-01-05T11:42:31.221Z,8.10
2024-01-05T11:45:00.882Z,8.00
2024-01-05T11:47:42.881Z,8.00
2024-01-05T11:50:27.929Z,8.10
2024-01-05T11:53:13.558Z,8.20
2024-01-05T11:55:48.814Z,8.30
2024-01-05T11:58:20.738Z,8.40
2024-01-05T12:00:49.743Z,8.30
2024-01-05T12:03:21.751Z,8.40
2024-01-05T12:05:51.709Z,8.40
2024-01-05T12:08:20.576Z,8.40
2024-01-05T12:10:55.346Z,8.30
2024-01-05T12:13:26.030Z,8.30
2024-01-05T12:16:00.897Z,8.30
2024-01-05T12:18:37.548Z,8.20
2024-01-05T12:21:08.861Z,8.30
2024-01-05T12:23:38.573Z,8.20
2024-01-05T12:26:09.759Z,8.20
2024-01-05T12:28:39.162Z,8.10
2024-01-05T12:31:08.920Z,8.10
2024-01-05T12:33:39.344Z,8.00
2024-01-05T12:36:11.258Z,8.00
2024-01-05T12:38:40.097Z,8.00
2024-01-05T12:41:12.081Z,8.00
2024-01-05T12:43:46.824Z,8.10
2024-01-05T12:46:16.037Z,8.10
2024-01-05T12:48:44.328Z,8.10
2024-01-05T12:51:15.211Z,8.10
2024-01-05T12:53:45.810Z,8.10
2024-01-05T12:56:17.550Z,8.10
2024-01-05T12:58:48.313Z,8.00
2024-01-05T13:01:18.990Z,8.00
2024-01-05T13:03:52.942Z,8.00
2024-01-05T13:06:22.242Z,7.90
2024-01-05T13:08:50.646Z,7.90
2024-01-05T13:11:21.683Z,7.90
2024-01-05T13:13:50.879Z,7.90
2024-01-05T13:16:19.081Z,7.90
2024-01-05T13:18:47.336Z,7.90
2024-01-05T13:21:15.773Z,7.80
2024-01-05T13:23:45.242Z,7.90
2024-01-05T13:26:13.497Z,7.90
2024-01-05T13:28:42.911Z,7.90
2024-01-05T13:31:11.212Z,7.80
2024-01-05T13:33:39.700Z,7.90
2024-01-05T13:36:08.239Z,7.90
2024-01-05T13:38:40.768Z,7.80
2024-01-05T13:41:08.850Z,7.80
2024-01-05T13:43:36.878Z,7.80
2024-01-05T13:46:08.150Z,7.80
2024-01-05T13:48:36.742Z,7.80
2024-01-05T13:51:04.987Z,7.80
2024-01-05T13:53:33.095Z,7.80
2024-01-05T13:56:01.189Z,7.80
2024-01-05T13:58:29.310Z,7.80
2024-01-05T14:01:00.439Z,7.80
2024-01-05T14:03:30.846Z,7.80
2024-01-05T14:05:59.869Z,7.70
2024-01-05T14:08:27.919Z,7.70
2024-01-05T14:10:56.221Z,7.70
2024-01-05T14:13:24.491Z,7.70
2024-01-05T14:15:52.623Z,7.60
2024-01-05T14:18:20.834Z,7.60
2024-01-05T14:20:51.745Z,7.50
2024-01-05T14:23:19.761Z,7.50
2024-01-05T14:25:47.819Z,7.50
2024-01-05T14:28:15.830Z,7.50
2024-01-05T14:30:44.245Z,7.50
2024-01-05T14:33:12.450Z,7.50
2024-01-05T14:35:40.509Z,7.50
2024-01-05T14:38:09.951Z,7.50
2024-01-05T14:40:38.442Z,7.50
2024-01-05T14:43:07.096Z,7.50
2024-01-05T14:45:35.131Z,7.50
2024-01-05T14:48:03.343Z,7.60
2024-01-05T14:50:31.518Z,7.50
2024-01-05T14:53:07.860Z,7.50
2024-01-05T14:55:40.188Z,7.60
2024-01-05T14:58:08.335Z,7.60
2024-01-05T15:00:36.687Z,7.60
2024-01-05T15:03:05.898Z,7.60
2024-01-05T15:05:34.223Z,7.60
2024-01-05T15:08:04.759Z,7.60
2024-01-05T15:10:33.885Z,7.60
2024-01-05T15:13:02.475Z,7.70
2024-01-05T15:15:30.570Z,7.60
2024-01-05T15:17:58.930Z,7.60
2024-01-05T15:20:27.146Z,7.60
2024-01-05T15:22:55.250Z,7.60
2024-01-05T15:25:23.816Z,7.60
2024-01-05T15:27:54.734Z,7.60
2024-01-05T15:30:25.538Z,7.60
2024-01-05T15:32:53.632Z,7.60
2024-01-05T15:35:21.863Z,7.60
2024-01-05T15:37:49.916Z,7.60
2024-01-05T15:42:50.344Z,7.50
2024-01-05T15:45:18.903Z,7.40
2024-01-05T15:47:48.626Z,7.40
2024-01-05T15:50:16.884Z,7.50
2024-01-05T15:52:44.969Z,7.40
2024-01-05T15:55:13.099Z,7.50
2024-01-05T15:57:42.017Z,7.40
2024-01-05T16:00:11.229Z,7.40
2024-01-05T16:02:41.949Z,7.40
2024-01-05T16:05:11.904Z,7.40
2024-01-05T16:07:40.040Z,7.40
2024-01-05T16:10:08.446Z,7.30
2024-01-05T16:12:36.623Z,7.30
2024-01-05T16:15:05.313Z,7.20
2024-01-05T16:17:36.217Z,7.20
2024-01-05T16:20:04.776Z,7.20
2024-01-05T16:22:34.199Z,7.20
2024-01-05T16:25:02.225Z,7.20
2024-01-05T16:27:31.149Z,7.10
2024-01-05T16:30:00.243Z,7.00
2024-01-05T16:32:28.330Z,7.00
2024-01-05T16:34:56.400Z,7.00
2024-01-05T16:37:24.423Z,6.90
2024-01-05T16:39:53.940Z,6.90
2024-01-05T16:42:22.026Z,7.00
2024-01-05T16:44:50.048Z,6.90
2024-01-05T16:47:18.160Z,6.90
2024-01-05T16:49:46.277Z,7.00
2024-01-05T16:52:14.394Z,7.00
2024-01-05T16:54:42.484Z,6.90
2024-01-05T16:57:11.883Z,6.90
2024-01-05T16:59:40.600Z,6.90
2024-01-05T17:02:08.825Z,6.90
2024-01-05T17:04:37.254Z,7.00
2024-01-05T17:07:05.721Z,7.00
2024-01-05T17:09:35.869Z,7.00
2024-01-05T17:12:06.073Z,7.00
2024-01-05T17:14:35.603Z,6.90
2024-01-05T17:17:03.735Z,7.00
2024-01-05T17:19:31.838Z,7.00
2024-01-05T17:22:00.035Z,7.00
2024-01-05T17:24:28.232Z,6.90
2024-01-05T17:26:56.272Z,6.90
2024-01-05T17:29:24.281Z,6.90
2024-01-05T17:31:53.677Z,6.90
2024-01-05T17:34:24.238Z,7.00
2024-01-05T17:36:52.393Z,7.00
2024-01-05T17:39:20.479Z,7.00
2024-01-05T17:41:48.521Z,6.90
2024-01-05T17:44:16.565Z,6.90
2024-01-05T17:46:45.637Z,7.00
2024-01-05T17:49:15.101Z,7.00
2024-01-05T17:51:43.310Z,6.90
2024-01-05T17:54:11.371Z,6.90
2024-01-05T17:56:39.442Z,6.90
2024-01-05T17:59:09.760Z,7.00
2024-01-05T18:01:43.541Z,6.90
2024-01-05T18:04:11.840Z,7.00
2024-01-05T18:06:41.427Z,6.90
2024-01-05T18:09:09.491Z,6.90
2024-01-05T18:11:37.594Z,6.90
2024-01-05T18:14:05.654Z,6.90
2024-01-05T18:16:36.705Z,6.90
2024-01-05T18:19:05.871Z,6.90
2024-01-05T18:21:34.377Z,6.90
2024-01-05T18:24:05.138Z,6.90
2024-01-05T18:26:36.668Z,6.90
2024-01-05T18:29:12.253Z,6.90
2024-01-05T18:31:52.196Z,6.80
2024-01-05T18:34:24.158Z,6.80
2024-01-05T18:36:52.608Z,6.70
2024-01-05T18:39:22.452Z,6.70
2024-01-05T18:41:50.764Z,6.80
2024-01-05T18:44:18.837Z,6.70
2024-01-05T18:46:49.255Z,6.70
2024-01-05T18:49:18.791Z,6.70
2024-01-05T18:51:47.061Z,6.70
2024-01-05T18:54:15.362Z,6.70
2024-01-05T18:56:45.181Z,6.70
2024-01-05T18:59:13.565Z,6.70
2024-01-05T19:01:42.464Z,6.80
2024-01-05T19:04:10.786Z,6.80
2024-01-05T19:06:39.638Z,6.80
2024-01-05T19:09:07.801Z,6.80
2024-01-05T19:11:37.594Z,6.80
2024-01-05T19:14:07.699Z,6.70
2024-01-05T19:16:35.985Z,6.70
2024-01-05T19:19:05.270Z,6.70
2024-01-05T19:21:43.247Z,6.70
2024-01-05T19:24:14.932Z,6.70
2024-01-05T19:26:43.662Z,6.70
2024-01-05T19:29:13.132Z,6.70
2024-01-05T19:31:44.720Z,6.70
2024-01-05T19:34:13.357Z,6.70
2024-01-05T19:36:45.348Z,6.70
2024-01-05T19:39:13.880Z,6.80
2024-01-05T19:41:45.598Z,6.80
2024-01-05T19:44:17.136Z,6.80
2024-01-05T19:46:45.558Z,6.80
2024-01-05T19:49:14.235Z,6.70
2024-01-05T19:51:47.015Z,6.70
2024-01-05T19:54:18.323Z,6.80
2024-01-05T19:56:46.584Z,6.80
2024-01-05T19:59:16.055Z,6.70
2024-01-05T20:01:47.011Z,6.70
2024-01-05T20:04:16.251Z,6.80
2024-01-05T20:06:46.128Z,6.80
2024-01-05T20:09:14.785Z,6.80
2024-01-05T20:11:43.120Z,6.80
2024-01-05T20:14:12.374Z,6.80
2024-01-05T20:16:42.309Z,6.80
2024-01-05T20:19:13.188Z,6.80
2024-01-05T20:21:41.387Z,6.80
2024-01-05T20:24:09.868Z,6.80
2024-01-05T20:26:38.159Z,6.80
2024-01-05T20:29:06.474Z,6.80
2024-01-05T20:31:34.690Z,6.70
2024-01-05T20:34:05.919Z,6.70
2024-01-05T20:36:36.940Z,6.80
2024-01-05T20:39:05.360Z,6.80
2024-01-05T20:41:33.457Z,6.80
2024-01-05T20:44:01.927Z,6.80
2024-01-05T20:46:29.979Z,6.80
2024-01-05T20:48:58.667Z,6.80
2024-01-05T20:51:28.993Z,6.80
2024-01-05T20:53:57.543Z,6.80
2024-01-05T20:56:25.825Z,6.80
2024-01-05T20:58:53.873Z,6.80
2024-01-05T21:01:22.010Z,6.80
2024-01-05T21:03:50.170Z,6.80
2024-01-05T21:06:18.414Z,6.90
2024-01-05T21:08:47.855Z,6.80
2024-01-05T21:11:22.662Z,6.90
2024-01-05T21:13:50.691Z,6.80
2024-01-05T21:16:18.885Z,6.90
2024-01-05T21:18:47.681Z,6.80
2024-01-05T21:21:15.889Z,6.80
2024-01-05T21:23:43.965Z,6.70
2024-01-05T21:26:14.130Z,6.90
2024-01-05T21:28:42.832Z,6.80
2024-01-05T21:31:11.296Z,6.70
2024-01-05T21:33:39.551Z,6.70
2024-01-05T21:36:12.152Z,6.70
2024-01-05T21:38:40.227Z,6.80
2024-01-05T21:41:08.381Z,6.70
2024-01-05T21:43:37.748Z,6.70
2024-01-05T21:46:06.060Z,6.70
2024-01-05T21:48:34.304Z,6.70
2024-01-05T21:51:02.405Z,6.70
2024-01-05T21:53:30.604Z,6.70
2024-01-05T21:55:59.243Z,6.70
2024-01-05T21:58:27.222Z,6.80
2024-01-05T22:00:56.702Z,6.80
2024-01-05T22:03:25.689Z,6.80
2024-01-05T22:05:53.786Z,6.80
2024-01-05T22:08:21.873Z,6.80
2024-01-05T22:10:51.340Z,6.80
2024-01-05T22:13:19.553Z,6.80
2024-01-05T22:15:47.750Z,6.80
2024-01-05T22:18:17.401Z,6.80
2024-01-05T22:20:45.540Z,6.90
2024-01-05T22:23:14.538Z,6.80
2024-01-05T22:25:42.633Z,6.80
2024-01-05T22:28:10.662Z,6.80
2024-01-05T22:30:38.840Z,6.80
2024-01-05T22:33:08.076Z,6.80
2024-01-05T22:35:38.887Z,6.80
2024-01-05T22:38:06.981Z,6.80
2024-01-05T22:40:35.077Z,6.80
2024-01-05T22:43:03.772Z,6.80
2024-01-05T22:45:31.925Z,6.90
2024-01-05T22:48:00.157Z,6.90
2024-01-05T22:50:30.014Z,6.80
2024-01-05T22:52:59.402Z,6.80
2024-01-05T22:55:27.547Z,6.80
2024-01-05T22:57:55.574Z,6.90
2024-01-05T23:00:34.415Z,6.90
2024-01-05T23:03:06.470Z,6.90
2024-01-05T23:05:34.686Z,7.00
2024-01-05T23:08:05.067Z,6.90
2024-01-05T23:10:35.597Z,6.90
2024-01-05T23:13:04.257Z,6.90
2024-01-05T23:15:32.500Z,6.90
2024-01-05T23:18:00.964Z,6.90
2024-01-05T23:20:29.814Z,6.90
2024-01-05T23:22:57.884Z,6.80
2024-01-05T23:25:27.844Z,6.90
2024-01-05T23:27:56.100Z,6.90
2024-01-05T23:30:24.697Z,6.80
2024-01-05T23:32:52.842Z,6.80
2024-01-05T23:35:21.209Z,6.80
2024-01-05T23:37:49.348Z,6.90
2024-01-05T23:40:17.574Z,6.90
2024-01-05T23:42:47.169Z,6.80
2024-01-05T23:45:15.843Z,6.90
2024-01-05T23:47:43.949Z,6.80
2024-01-05T23:50:12.053Z,6.80
2024-01-05T23:52:40.036Z,6.80
2024-01-05T23:55:08.470Z,6.80
2024-01-05T23:57:36.589Z,6.80
